createdAt,value
2022-08-04T00:03:23.138Z,100.00
2022-08-04T00:08:49.793Z,100.00
2022-08-04T00:14:03.984Z,100.00
2022-08-04T00:19:18.958Z,100.00
2022-08-04T00:24:22.613Z,100.00
2022-08-04T00:29:25.770Z,100.00
2022-08-04T00:34:31.639Z,100.00
2022-08-04T00:39:35.068Z,100.00
2022-08-04T00:45:03.430Z,100.00
2022-08-04T00:50:25.514Z,100.00
2022-08-04T00:55:53.976Z,100.00
2022-08-04T01:01:04.706Z,100.00
2022-08-04T01:06:19.136Z,100.00
2022-08-04T01:11:57.255Z,100.00
2022-08-04T01:17:18.564Z,100.00
2022-08-04T01:22:43.824Z,100.00
2022-08-04T01:28:05.009Z,100.00
2022-08-04T01:33:17.665Z,100.00
2022-08-04T01:38:24.478Z,100.00
2022-08-04T01:43:29.143Z,100.00
2022-08-04T01:48:32.257Z,100.00
2022-08-04T01:53:44.290Z,100.00
2022-08-04T01:58:46.578Z,100.00
2022-08-04T02:04:20.715Z,100.00
2022-08-04T02:09:22.499Z,100.00
2022-08-04T02:14:41.306Z,100.00
2022-08-04T02:20:01.856Z,100.00
2022-08-04T02:25:09.794Z,100.00
2022-08-04T02:30:12.392Z,100.00
2022-08-04T02:35:27.553Z,100.00
2022-08-04T02:40:31.809Z,100.00
2022-08-04T02:45:40.272Z,100.00
2022-08-04T02:50:44.692Z,100.00
2022-08-04T02:55:50.997Z,100.00
2022-08-04T03:00:55.794Z,100.00
2022-08-04T03:06:13.571Z,100.00
2022-08-04T03:11:43.419Z,100.00
2022-08-04T03:17:04.965Z,100.00
2022-08-04T03:22:26.614Z,100.00
2022-08-04T03:27:47.633Z,100.00
2022-08-04T03:33:26.061Z,100.00
2022-08-04T03:38:58.807Z,100.00
2022-08-04T03:44:01.095Z,100.00
2022-08-04T03:49:32.911Z,100.00
2022-08-04T03:55:16.014Z,100.00
2022-08-04T04:00:58.371Z,100.00
2022-08-04T04:06:19.733Z,100.00
2022-08-04T04:11:57.121Z,100.00
2022-08-04T04:17:14.089Z,100.00
2022-08-04T04:22:53.809Z,100.00
2022-08-04T04:28:45.055Z,100.00
2022-08-04T04:34:16.982Z,100.00
2022-08-04T04:39:40.800Z,100.00
2022-08-04T04:45:08.098Z,100.00
2022-08-04T04:50:36.702Z,99.07
2022-08-04T04:55:57.067Z,100.00
2022-08-04T05:01:11.398Z,98.59
2022-08-04T05:06:47.044Z,99.61
2022-08-04T05:14:31.988Z,95.94
2022-08-04T05:18:03.128Z,86.68
2022-08-04T05:23:08.313Z,83.75
2022-08-04T05:28:18.246Z,79.84
2022-08-04T05:33:29.297Z,77.00
2022-08-04T05:38:36.497Z,74.11
2022-08-04T05:43:43.205Z,72.25
2022-08-04T05:48:47.271Z,68.67
2022-08-04T05:53:50.798Z,64.20
2022-08-04T05:58:54.540Z,63.37
2022-08-04T06:03:59.308Z,62.22
2022-08-04T06:09:01.763Z,60.33
2022-08-04T06:14:08.108Z,58.44
2022-08-04T06:20:01.889Z,54.88
2022-08-04T06:24:39.578Z,47.70
2022-08-04T06:29:50.818Z,38.56
2022-08-04T06:34:59.740Z,32.82
2022-08-04T06:40:29.970Z,28.11
2022-08-04T06:45:27.605Z,26.31
2022-08-04T06:51:32.066Z,26.33
2022-08-04T06:55:54.223Z,27.23
2022-08-04T07:01:02.234Z,27.83
2022-08-04T07:06:05.585Z,30.04
2022-08-04T07:11:15.267Z,30.40
2022-08-04T07:16:19.942Z,32.38
2022-08-04T07:21:23.743Z,31.43
2022-08-04T07:26:30.597Z,29.78
2022-08-04T07:31:36.148Z,31.06
2022-08-04T07:36:50.109Z,27.90
2022-08-04T07:41:54.539Z,29.27
2022-08-04T07:46:56.851Z,29.67
2022-08-04T07:52:00.006Z,28.43
2022-08-04T07:57:04.182Z,27.61
2022-08-04T08:02:06.634Z,27.69
2022-08-04T08:07:09.039Z,29.86
2022-08-04T08:12:35.879Z,28.42
2022-08-04T08:17:58.126Z,27.90
2022-08-04T08:23:03.409Z,30.34
2022-08-04T08:28:08.861Z,26.84
2022-08-04T08:33:15.674Z,27.45
2022-08-04T08:38:25.594Z,26.48
2022-08-04T08:44:03.933Z,26.55
2022-08-04T08:50:02.020Z,26.19
2022-08-04T08:55:14.321Z,27.65
2022-08-04T09:00:39.255Z,29.87
2022-08-04T09:06:02.699Z,28.06
2022-08-04T09:11:17.523Z,28.48
2022-08-04T09:16:28.166Z,27.08
2022-08-04T09:21:59.404Z,26.78
2022-08-04T09:27:05.786Z,25.98
2022-08-04T09:32:17.038Z,27.71
2022-08-04T09:37:45.779Z,27.67
2022-08-04T09:42:59.315Z,27.06
2022-08-04T09:48:14.348Z,25.96
2022-08-04T09:53:35.217Z,27.08
2022-08-04T09:58:51.582Z,27.28
2022-08-04T10:03:59.744Z,27.39
2022-08-04T10:09:30.124Z,27.48
2022-08-04T10:14:39.288Z,27.70
2022-08-04T10:19:42.473Z,25.93
2022-08-04T10:26:03.389Z,26.12
2022-08-04T10:30:50.174Z,25.92
2022-08-04T10:36:00.763Z,26.68
2022-08-04T10:41:32.296Z,28.14
2022-08-04T10:46:44.650Z,27.06
2022-08-04T10:52:28.323Z,29.29
2022-08-04T10:57:37.279Z,29.69
2022-08-04T11:03:00.010Z,30.48
2022-08-04T11:08:14.339Z,26.55
2022-08-04T11:13:22.127Z,27.57
2022-08-04T11:19:04.707Z,29.71
2022-08-04T11:24:18.670Z,29.04
2022-08-04T11:29:41.205Z,31.05
2022-08-04T11:34:52.605Z,31.72
2022-08-04T11:40:10.158Z,32.34
2022-08-04T11:45:25.441Z,31.15
2022-08-04T11:50:53.859Z,30.37
2022-08-04T11:56:08.279Z,24.44
2022-08-04T12:01:35.387Z,23.19
2022-08-04T12:07:30.094Z,27.38
2022-08-04T12:12:50.981Z,28.57
2022-08-04T12:18:28.286Z,29.92
2022-08-04T12:23:41.880Z,27.99
2022-08-04T12:29:09.731Z,30.13
2022-08-04T12:34:21.395Z,30.77
2022-08-04T12:39:27.438Z,28.63
2022-08-04T12:44:39.055Z,27.41
2022-08-04T12:49:46.652Z,26.84
2022-08-04T12:55:02.555Z,27.77
2022-08-04T13:00:06.084Z,27.71
2022-08-04T13:05:17.234Z,26.07
2022-08-04T13:10:30.683Z,26.03
2022-08-04T13:21:49.554Z,27.52
2022-08-04T13:27:03.314Z,28.78
2022-08-04T13:30:23.936Z,25.94
2022-08-04T13:32:07.579Z,29.69
2022-08-04T13:37:22.001Z,28.36
2022-08-04T13:42:27.490Z,29.44
2022-08-04T13:47:34.341Z,29.76
2022-08-04T13:52:39.135Z,29.91
2022-08-04T13:57:53.008Z,28.64
2022-08-04T14:03:23.612Z,28.87
2022-08-04T14:08:31.512Z,28.05
2022-08-04T14:13:41.259Z,28.69
2022-08-04T14:18:44.006Z,28.25
2022-08-04T14:23:56.560Z,28.39
2022-08-04T14:29:28.666Z,28.45
2022-08-04T14:34:33.916Z,28.05
2022-08-04T14:40:08.165Z,29.02
2022-08-04T14:45:12.340Z,28.41
2022-08-04T14:50:15.652Z,29.59
2022-08-04T14:55:27.250Z,29.54
2022-08-04T15:00:36.527Z,29.88
2022-08-04T15:06:01.545Z,30.60
2022-08-04T15:11:08.986Z,31.29
2022-08-04T15:16:12.166Z,30.88
2022-08-04T15:21:15.834Z,30.50
2022-08-04T15:26:45.101Z,29.98
2022-08-04T15:32:06.131Z,29.82
2022-08-04T15:37:37.607Z,29.89
2022-08-04T15:42:48.937Z,29.83
2022-08-04T15:48:13.820Z,30.31
2022-08-04T15:53:23.084Z,30.30
2022-08-04T15:58:50.345Z,30.88
2022-08-04T16:04:00.931Z,32.82
2022-08-04T16:09:05.638Z,31.76
2022-08-04T16:14:12.237Z,31.87
2022-08-04T16:19:49.640Z,38.11
2022-08-04T16:24:52.723Z,34.30
2022-08-04T16:30:05.543Z,34.08
2022-08-04T16:35:42.534Z,35.28
2022-08-04T16:46:09.256Z,39.20
2022-08-04T16:51:34.851Z,40.30
2022-08-04T16:56:38.233Z,41.66
2022-08-04T17:01:52.063Z,46.62
2022-08-04T17:07:00.134Z,47.23
2022-08-04T17:12:03.930Z,50.42
2022-08-04T17:17:08.706Z,50.81
2022-08-04T17:22:11.470Z,52.27
2022-08-04T17:28:08.657Z,58.84
2022-08-04T17:32:44.958Z,60.64
2022-08-04T17:37:52.627Z,61.49
2022-08-04T17:44:04.923Z,67.40
2022-08-04T17:48:28.995Z,69.84
2022-08-04T17:54:01.255Z,70.81
2022-08-04T17:59:56.148Z,70.82
2022-08-04T18:10:27.599Z,76.37
2022-08-04T18:15:44.340Z,72.45
2022-08-04T18:20:50.178Z,76.17
2022-08-04T18:25:52.776Z,74.19
2022-08-04T18:30:56.665Z,73.08
2022-08-04T18:36:33.964Z,70.83
2022-08-04T18:41:22.261Z,70.16
2022-08-04T18:46:26.870Z,71.81
2022-08-04T18:51:30.956Z,71.99
2022-08-04T18:56:34.205Z,73.18
2022-08-04T19:02:13.637Z,75.12
2022-08-04T19:07:24.568Z,76.68
2022-08-04T19:12:27.183Z,77.60
2022-08-04T19:17:56.899Z,77.71
2022-08-04T19:24:28.691Z,78.90
2022-08-04T19:28:19.582Z,80.10
2022-08-04T19:33:30.106Z,80.93
2022-08-04T19:38:48.701Z,82.40
2022-08-04T19:43:54.798Z,84.47
2022-08-04T19:48:59.778Z,84.99
2022-08-04T19:54:14.903Z,86.05
2022-08-04T19:59:19.839Z,87.81
2022-08-04T20:04:22.050Z,88.46
2022-08-04T20:09:27.049Z,88.82
2022-08-04T20:14:39.354Z,88.90
2022-08-04T20:19:42.653Z,89.45
2022-08-04T20:25:01.000Z,90.31
2022-08-04T20:30:19.093Z,89.55
2022-08-04T20:35:26.663Z,88.56
2022-08-04T20:40:31.002Z,87.61
2022-08-04T20:45:57.010Z,86.30
2022-08-04T20:50:57.055Z,86.45
2022-08-04T20:56:02.707Z,87.87
2022-08-04T21:01:11.145Z,91.23
2022-08-04T21:06:17.247Z,94.16
2022-08-04T21:11:22.646Z,95.34
2022-08-04T21:16:54.138Z,94.27
2022-08-04T21:21:50.082Z,93.27
2022-08-04T21:26:57.255Z,91.90
2022-08-04T21:32:28.899Z,90.50
2022-08-04T21:37:57.802Z,89.99
2022-08-04T21:42:54.630Z,89.81
2022-08-04T21:47:56.712Z,90.05
2022-08-04T21:52:59.137Z,90.84
2022-08-04T21:58:04.839Z,90.82
2022-08-04T22:03:23.271Z,90.38
2022-08-04T22:08:30.640Z,90.47
2022-08-04T22:13:52.490Z,90.01
2022-08-04T22:18:55.254Z,91.21
2022-08-04T22:24:00.732Z,92.89
2022-08-04T22:29:07.219Z,93.23
2022-08-04T22:34:17.030Z,94.02
2022-08-04T22:39:23.457Z,93.96
2022-08-04T22:44:29.596Z,93.96
2022-08-04T22:49:37.215Z,94.15
2022-08-04T22:54:40.696Z,94.10
2022-08-04T22:59:43.459Z,96.48
2022-08-04T23:04:45.835Z,98.23
2022-08-04T23:09:53.515Z,98.40
2022-08-04T23:14:58.276Z,98.39
2022-08-04T23:20:00.752Z,98.35
2022-08-04T23:25:03.869Z,98.30
2022-08-04T23:30:07.956Z,97.42
2022-08-04T23:35:15.182Z,98.50
2022-08-04T23:40:32.995Z,97.86
2022-08-04T23:46:04.609Z,98.39
2022-08-04T23:51:14.697Z,99.31
2022-08-04T23:56:19.789Z,99.67
